Observation data for Floydada on 11/19/2019      Previous  Date  Next       Current Mesonet Observations  Soil Data  Daily Summary Page  Observations in Plain Language
KFLS 190600Z 22005KT 05/M02 A2998 RMK A01 T00511016  RH  062%=      5-min Rain = 0
KFLS 190605Z 22005KT 05/M02 A2998 RMK A01 T00541017  RH  061%=      5-min Rain = 0
KFLS 190610Z 23004KT 05/M02 A2998 RMK A01 T00461019  RH  063%=      5-min Rain = 0
KFLS 190615Z 23004KT 04/M02 A2998 RMK A01 T00431019  RH  064%=      5-min Rain = 0
KFLS 190620Z 24005KT 05/M02 A2999 RMK A01 T00451018  RH  064%=      5-min Rain = 0
KFLS 190625Z 24004KT 05/M02 A2998 RMK A01 T00451019  RH  064%=      5-min Rain = 0
KFLS 190630Z 24004KT 05/M02 A2998 RMK A01 T00451020  RH  064%=      5-min Rain = 0
KFLS 190635Z 25004KT 04/M02 A2998 RMK A01 T00391021  RH  066%=      5-min Rain = 0
KFLS 190640Z 25004KT 04/M02 A2998 RMK A01 T00361021  RH  067%=      5-min Rain = 0
KFLS 190645Z 26004KT 04/M02 A2998 RMK A01 T00391020  RH  067%=      5-min Rain = 0
KFLS 190650Z 26004KT 04/M02 A2998 RMK A01 T00391019  RH  066%=      5-min Rain = 0
KFLS 190655Z 26004KT 04/M02 A2998 RMK A01 T00391018  RH  067%=      5-min Rain = 0
KFLS 190700Z 26004KT 04/M02 A2998 RMK A01 T00381017  RH  068%=      5-min Rain = 0
KFLS 190705Z 26004KT 04/M02 A2998 RMK A01 T00351018  RH  069%=      5-min Rain = 0
KFLS 190710Z 26004KT 04/M02 A2998 RMK A01 T00361017  RH  069%=      5-min Rain = 0
KFLS 190715Z 26003KT 04/M02 A2998 RMK A01 T00401017  RH  067%=      5-min Rain = 0
KFLS 190720Z 27003KT 04/M02 A2998 RMK A01 T00381017  RH  068%=      5-min Rain = 0
KFLS 190725Z 27003KT 04/M02 A2997 RMK A01 T00351017  RH  069%=      5-min Rain = 0
KFLS 190730Z 28002KT 04/M02 A2997 RMK A01 T00361016  RH  069%=      5-min Rain = 0
KFLS 190735Z 28003KT 04/M02 A2997 RMK A01 T00381016  RH  069%=      5-min Rain = 0
KFLS 190740Z 29003KT 04/M02 A2997 RMK A01 T00421015  RH  067%=      5-min Rain = 0
KFLS 190745Z 28003KT 04/M02 A2997 RMK A01 T00431016  RH  066%=      5-min Rain = 0
KFLS 190750Z 28002KT 04/M02 A2997 RMK A01 T00411016  RH  067%=      5-min Rain = 0
KFLS 190755Z 27002KT 04/M02 A2997 RMK A01 T00381018  RH  068%=      5-min Rain = 0
KFLS 190800Z 27002KT 04/M02 A2997 RMK A01 T00361018  RH  068%=      5-min Rain = 0
KFLS 190805Z 27002KT 03/M02 A2998 RMK A01 T00321019  RH  070%=      5-min Rain = 0
KFLS 190810Z 29002KT 03/M02 A2998 RMK A01 T00311019  RH  071%=      5-min Rain = 0
KFLS 190815Z 29003KT 03/M02 A2998 RMK A01 T00301019  RH  071%=      5-min Rain = 0
KFLS 190820Z 29003KT 03/M02 A2998 RMK A01 T00341018  RH  069%=      5-min Rain = 0
KFLS 190825Z 29003KT 03/M02 A2998 RMK A01 T00341018  RH  069%=      5-min Rain = 0
KFLS 190830Z 29004KT 03/M02 A2998 RMK A01 T00341018  RH  069%=      5-min Rain = 0
KFLS 190835Z 28004KT 03/M02 A2998 RMK A01 T00311020  RH  070%=      5-min Rain = 0
KFLS 190840Z 28005KT 03/M02 A2998 RMK A01 T00251022  RH  072%=      5-min Rain = 0
KFLS 190845Z 28005KT 03/M02 A2998 RMK A01 T00261018  RH  073%=      5-min Rain = 0
KFLS 190850Z 27005KT 03/M02 A2998 RMK A01 T00291018  RH  072%=      5-min Rain = 0
KFLS 190855Z 28006KT 02/M02 A2998 RMK A01 T00221020  RH  075%=      5-min Rain = 0
KFLS 190900Z 29006KT 02/M02 A2998 RMK A01 T00151022  RH  077%=      5-min Rain = 0
KFLS 190905Z 29007KT 01/M02 A2998 RMK A01 T00111023  RH  079%=      5-min Rain = 0
KFLS 190910Z 29007KT 01/M02 A2998 RMK A01 T00141021  RH  078%=      5-min Rain = 0
KFLS 190915Z 29007KT 01/M02 A2999 RMK A01 T00131021  RH  079%=      5-min Rain = 0
KFLS 190920Z 29007KT 01/M02 A2999 RMK A01 T00141020  RH  079%=      5-min Rain = 0
KFLS 190925Z 29008KT 01/M02 A2999 RMK A01 T00141020  RH  079%=      5-min Rain = 0
KFLS 190930Z 29008KT 02/M02 A2999 RMK A01 T00161018  RH  079%=      5-min Rain = 0
KFLS 190935Z 30007KT 02/M02 A2999 RMK A01 T00221016  RH  076%=      5-min Rain = 0
KFLS 190940Z 30007KT 03/M02 A2999 RMK A01 T00261016  RH  074%=      5-min Rain = 0
KFLS 190945Z 30007KT 03/M02 A2999 RMK A01 T00281016  RH  074%=      5-min Rain = 0
KFLS 190950Z 30006KT 03/M02 A2999 RMK A01 T00291017  RH  073%=      5-min Rain = 0
KFLS 190955Z 30006KT 03/M02 A2999 RMK A01 T00261018  RH  074%=      5-min Rain = 0
KFLS 191000Z 30006KT 02/M02 A2999 RMK A01 T00231019  RH  075%=      5-min Rain = 0
KFLS 191005Z 30006KT 02/M02 A2999 RMK A01 T00211018  RH  076%=      5-min Rain = 0
KFLS 191010Z 29006KT 02/M02 A2999 RMK A01 T00191019  RH  077%=      5-min Rain = 0
KFLS 191015Z 30006KT 02/M02 A2999 RMK A01 T00181020  RH  077%=      5-min Rain = 0
KFLS 191020Z 30006KT 02/M02 A2999 RMK A01 T00191019  RH  077%=      5-min Rain = 0
KFLS 191025Z 31006KT 03/M02 A2998 RMK A01 T00251019  RH  073%=      5-min Rain = 0
KFLS 191030Z 31006KT 03/M02 A2998 RMK A01 T00281019  RH  072%=      5-min Rain = 0
KFLS 191035Z 32006KT 03/M02 A2998 RMK A01 T00291018  RH  072%=      5-min Rain = 0
KFLS 191040Z 32005KT 03/M02 A2998 RMK A01 T00281019  RH  072%=      5-min Rain = 0
KFLS 191045Z 32005KT 03/M02 A2998 RMK A01 T00261020  RH  073%=      5-min Rain = 0
KFLS 191050Z 33005KT 02/M02 A2998 RMK A01 T00241020  RH  074%=      5-min Rain = 0
KFLS 191055Z 33005KT 02/M02 A2998 RMK A01 T00231020  RH  074%=      5-min Rain = 0
KFLS 191100Z 34005KT 03/M02 A2997 RMK A01 T00261019  RH  073%=      5-min Rain = 0
KFLS 191105Z 35005KT 02/M02 A2997 RMK A01 T00221021  RH  074%=      5-min Rain = 0
KFLS 191110Z 35004KT 02/M02 A2997 RMK A01 T00201021  RH  075%=      5-min Rain = 0
KFLS 191115Z 02004KT 02/M02 A2997 RMK A01 T00171023  RH  075%=      5-min Rain = 0
KFLS 191120Z 04005KT 01/M02 A2997 RMK A01 T00141024  RH  077%=      5-min Rain = 0
KFLS 191125Z 04006KT 01/M03 A2996 RMK A01 T00071025  RH  080%=      5-min Rain = 0
KFLS 191130Z 04006KT 01/M02 A2996 RMK A01 T00081022  RH  081%=      5-min Rain = 0
KFLS 191135Z 04005KT 01/M02 A2996 RMK A01 T00101021  RH  081%=      5-min Rain = 0
KFLS 191140Z 04003KT 01/M02 A2996 RMK A01 T00121020  RH  080%=      5-min Rain = 0
KFLS 191145Z 04003KT 02/M02 A2996 RMK A01 T00151020  RH  079%=      5-min Rain = 0
KFLS 191150Z 05005KT 02/M02 A2995 RMK A01 T00161019  RH  078%=      5-min Rain = 0
KFLS 191155Z 05005KT 02/M02 A2995 RMK A01 T00211018  RH  076%=      5-min Rain = 0
KFLS 191200Z 04005KT 02/M02 A2995 RMK A01 T00221019  RH  075%=      5-min Rain = 0
KFLS 191205Z 04004KT 02/M02 A2995 RMK A01 T00221019  RH  075%=      5-min Rain = 0
KFLS 191210Z 04002KT 02/M02 A2995 RMK A01 T00201020  RH  075%=      5-min Rain = 0
KFLS 191215Z 34001KT 02/M02 A2995 RMK A01 T00201022  RH  075%=      5-min Rain = 0
KFLS 191220Z 29001KT 01/M02 A2996 RMK A01 T00091024  RH  080%=      5-min Rain = 0
KFLS 191225Z 22000KT 01/M02 A2996 RMK A01 T00131020  RH  079%=      5-min Rain = 0
KFLS 191230Z 16002KT 02/M02 A2996 RMK A01 T00171020  RH  077%=      5-min Rain = 0
KFLS 191235Z 16002KT 03/M02 A2996 RMK A01 T00251018  RH  074%=      5-min Rain = 0
KFLS 191240Z 16003KT 03/M02 A2996 RMK A01 T00331018  RH  070%=      5-min Rain = 0
KFLS 191245Z 19004KT 04/M01 A2996 RMK A01 T00421014  RH  068%=      5-min Rain = 0
KFLS 191250Z 23004KT 03/M02 A2996 RMK A01 T00261023  RH  071%=      5-min Rain = 0
KFLS 191255Z 24006G11KT 01/M03 A2997 RMK A01 T00051028  RH  080%=      5-min Rain = 0
KFLS 191300Z 25007KT 01/M02 A2997 RMK A01 T00071022  RH  082%=      5-min Rain = 0
KFLS 191305Z 25007KT 01/M02 A2996 RMK A01 T00141018  RH  081%=      5-min Rain = 0
KFLS 191310Z 25007KT 02/M02 A2996 RMK A01 T00181018  RH  078%=      5-min Rain = 0
KFLS 191315Z 26005KT 02/M02 A2996 RMK A01 T00181019  RH  077%=      5-min Rain = 0
KFLS 191320Z 26005KT 02/M02 A2996 RMK A01 T00181020  RH  077%=      5-min Rain = 0
KFLS 191325Z 27004KT 01/M02 A2996 RMK A01 T00121023  RH  078%=      5-min Rain = 0
KFLS 191330Z 28005KT 01/M02 A2996 RMK A01 T00101023  RH  080%=      5-min Rain = 0
KFLS 191335Z 28005KT 01/M02 A2996 RMK A01 T00101024  RH  079%=      5-min Rain = 0
KFLS 191340Z 28006KT 01/M02 A2996 RMK A01 T00091024  RH  080%=      5-min Rain = 0
KFLS 191345Z 28006KT 01/M02 A2996 RMK A01 T00101022  RH  080%=      5-min Rain = 0
KFLS 191350Z 27005KT 02/M02 A2996 RMK A01 T00151019  RH  079%=      5-min Rain = 0
KFLS 191355Z 27006KT 02/M02 A2997 RMK A01 T00191016  RH  078%=      5-min Rain = 0
KFLS 191400Z 27006KT 02/M01 A2997 RMK A01 T00221013  RH  079%=      5-min Rain = 0
KFLS 191405Z 27005KT 03/M01 A2997 RMK A01 T00261009  RH  078%=      5-min Rain = 0
KFLS 191410Z 27004KT 03/M01 A2996 RMK A01 T00311005  RH  078%=      5-min Rain = 0
KFLS 191415Z 27004KT 04/M00 A2996 RMK A01 T00371001  RH  077%=      5-min Rain = 0
KFLS 191420Z 27003KT 04/00 A2996 RMK A01 T00440004  RH  076%=      5-min Rain = 0
KFLS 191425Z 26002KT 05/01 A2996 RMK A01 T00530009  RH  074%=      5-min Rain = 0
KFLS 191430Z 26002KT 06/01 A2996 RMK A01 T00620011  RH  071%=      5-min Rain = 0
KFLS 191435Z 27001KT 07/02 A2996 RMK A01 T00700017  RH  070%=      5-min Rain = 0
KFLS 191440Z 27002KT 08/02 A2996 RMK A01 T00780020  RH  067%=      5-min Rain = 0
KFLS 191445Z 25001KT 09/02 A2996 RMK A01 T00860022  RH  065%=      5-min Rain = 0
KFLS 191450Z 23001KT 09/02 A2996 RMK A01 T00910021  RH  062%=      5-min Rain = 0
KFLS 191455Z 20001KT 10/02 A2996 RMK A01 T00980022  RH  060%=      5-min Rain = 0
KFLS 191500Z 19001KT 11/03 A2996 RMK A01 T01050026  RH  059%=      5-min Rain = 0
KFLS 191505Z 21002KT 11/03 A2996 RMK A01 T01140025  RH  055%=      5-min Rain = 0
KFLS 191510Z 20002KT 12/02 A2996 RMK A01 T01230022  RH  051%=      5-min Rain = 0
KFLS 191515Z 18003KT 14/02 A2996 RMK A01 T01350020  RH  046%=      5-min Rain = 0
KFLS 191520Z 17004KT 15/02 A2996 RMK A01 T01500016  RH  041%=      5-min Rain = 0
KFLS 191525Z 16004KT 16/01 A2995 RMK A01 T01590011  RH  037%=      5-min Rain = 0
KFLS 191530Z 15005KT 17/01 A2995 RMK A01 T01670010  RH  035%=      5-min Rain = 0
KFLS 191535Z 16007KT 17/01 A2996 RMK A01 T01740007  RH  033%=      5-min Rain = 0
KFLS 191540Z 16007KT 18/01 A2996 RMK A01 T01760006  RH  032%=      5-min Rain = 0
KFLS 191545Z 16008KT 18/00 A2996 RMK A01 T01780004  RH  031%=      5-min Rain = 0
KFLS 191550Z 16008KT 18/01 A2996 RMK A01 T01840006  RH  031%=      5-min Rain = 0
KFLS 191555Z 16009KT 19/01 A2996 RMK A01 T01890006  RH  030%=      5-min Rain = 0
KFLS 191600Z 16011KT 19/01 A2996 RMK A01 T01930005  RH  029%=      5-min Rain = 0
KFLS 191605Z 16012G17KT 19/01 A2996 RMK A01 T01930005  RH  029%=      5-min Rain = 0
KFLS 191610Z 17012KT 19/01 A2996 RMK A01 T01930006  RH  029%=      5-min Rain = 0
KFLS 191615Z 16012KT 19/01 A2996 RMK A01 T01930006  RH  029%=      5-min Rain = 0
KFLS 191620Z 17013KT 19/01 A2996 RMK A01 T01930005  RH  029%=      5-min Rain = 0
KFLS 191625Z 17013KT 20/01 A2996 RMK A01 T01950006  RH  028%=      5-min Rain = 0
KFLS 191630Z 16013KT 19/01 A2996 RMK A01 T01940006  RH  029%=      5-min Rain = 0
KFLS 191635Z 17013KT 20/01 A2996 RMK A01 T01960008  RH  029%=      5-min Rain = 0
KFLS 191640Z 16013KT 20/01 A2995 RMK A01 T01970006  RH  028%=      5-min Rain = 0
KFLS 191645Z 17013KT 20/01 A2995 RMK A01 T02020008  RH  028%=      5-min Rain = 0
KFLS 191650Z 17013KT 20/00 A2995 RMK A01 T01990004  RH  027%=      5-min Rain = 0
KFLS 191655Z 18012KT 20/01 A2995 RMK A01 T02020005  RH  027%=      5-min Rain = 0
KFLS 191700Z 17012KT 21/01 A2995 RMK A01 T02060005  RH  027%=      5-min Rain = 0
KFLS 191705Z 17014KT 21/M00 A2995 RMK A01 T02051002  RH  025%=      5-min Rain = 0
KFLS 191710Z 17013KT 21/M00 A2994 RMK A01 T02061002  RH  025%=      5-min Rain = 0
KFLS 191715Z 16012KT 21/00 A2994 RMK A01 T02050001  RH  026%=      5-min Rain = 0
KFLS 191720Z 17012KT 21/00 A2994 RMK A01 T02100003  RH  025%=      5-min Rain = 0
KFLS 191725Z 17012KT 21/00 A2994 RMK A01 T02090001  RH  025%=      5-min Rain = 0
KFLS 191730Z 18013KT 21/M00 A2994 RMK A01 T02111003  RH  024%=      5-min Rain = 0
KFLS 191735Z 18012KT 21/M00 A2994 RMK A01 T02131003  RH  024%=      5-min Rain = 0
KFLS 191740Z 18013KT 21/M00 A2993 RMK A01 T02131003  RH  024%=      5-min Rain = 0
KFLS 191745Z 18014KT 21/M00 A2993 RMK A01 T02121001  RH  024%=      5-min Rain = 0
KFLS 191750Z 18013KT 21/M00 A2992 RMK A01 T02111001  RH  025%=      5-min Rain = 0
KFLS 191755Z 18012KT 22/00 A2992 RMK A01 T02210002  RH  024%=      5-min Rain = 0
KFLS 191800Z 18013G18KT 22/M00 A2992 RMK A01 T02221001  RH  023%=      5-min Rain = 0
KFLS 191805Z 18013KT 23/M00 A2992 RMK A01 T02261002  RH  022%=      5-min Rain = 0
KFLS 191810Z 18015KT 23/M00 A2992 RMK A01 T02261004  RH  022%=      5-min Rain = 0
KFLS 191815Z 19013KT 23/M01 A2992 RMK A01 T02291007  RH  021%=      5-min Rain = 0
KFLS 191820Z 18014KT 23/M01 A2991 RMK A01 T02311005  RH  021%=      5-min Rain = 0
KFLS 191825Z 18013G18KT 23/M01 A2991 RMK A01 T02311005  RH  021%=      5-min Rain = 0
KFLS 191830Z 19013KT 24/M01 A2991 RMK A01 T02371006  RH  020%=      5-min Rain = 0
KFLS 191835Z 18013G18KT 24/M01 A299 RMK A01 T02381009  RH  020%=      5-min Rain = 0
KFLS 191840Z 18015G20KT 23/M01 A299 RMK A01 T02291014  RH  020%=      5-min Rain = 0
KFLS 191845Z 18014G20KT 24/M01 A299 RMK A01 T02361009  RH  020%=      5-min Rain = 0
KFLS 191850Z 18015KT 23/M01 A299 RMK A01 T02341008  RH  020%=      5-min Rain = 0
KFLS 191855Z 18015G21KT 23/M01 A2989 RMK A01 T02301008  RH  021%=      5-min Rain = 0
KFLS 191900Z 18015KT 23/M00 A2989 RMK A01 T02331004  RH  021%=      5-min Rain = 0
KFLS 191905Z 18015G22KT 24/M00 A2989 RMK A01 T02371003  RH  021%=      5-min Rain = 0
KFLS 191910Z 18016KT 23/M00 A2988 RMK A01 T02321003  RH  021%=      5-min Rain = 0
KFLS 191915Z 19017G22KT 24/M00 A2988 RMK A01 T02381003  RH  021%=      5-min Rain = 0
KFLS 191920Z 18015G21KT 25/00 A2988 RMK A01 T024500-0  RH  020%=      5-min Rain = 0
KFLS 191925Z 18017G24KT 25/00 A2987 RMK A01 T024600-0  RH  020%=      5-min Rain = 0
KFLS 191930Z 19020G27KT 24/M00 A2987 RMK A01 T02411004  RH  020%=      5-min Rain = 0
KFLS 191935Z 18018G24KT 24/M00 A2987 RMK A01 T02411002  RH  020%=      5-min Rain = 0
KFLS 191940Z 20018G24KT 24/M00 A2987 RMK A01 T02441004  RH  020%=      5-min Rain = 0
KFLS 191945Z 18019G24KT 24/M00 A2986 RMK A01 T02431001  RH  020%=      5-min Rain = 0
KFLS 191950Z 19018G23KT 25/M00 A2986 RMK A01 T02461003  RH  020%=      5-min Rain = 0
KFLS 191955Z 20019G26KT 24/M01 A2986 RMK A01 T02441008  RH  019%=      5-min Rain = 0
KFLS 192000Z 18020G27KT 24/M01 A2985 RMK A01 T02431011  RH  019%=      5-min Rain = 0
KFLS 192005Z 19021G26KT 24/M01 A2985 RMK A01 T02401010  RH  019%=      5-min Rain = 0
KFLS 192010Z 20019G24KT 24/M01 A2985 RMK A01 T02411007  RH  020%=      5-min Rain = 0
KFLS 192015Z 20019G25KT 24/M01 A2985 RMK A01 T02411006  RH  020%=      5-min Rain = 0
KFLS 192020Z 19018G25KT 25/M01 A2985 RMK A01 T02451006  RH  019%=      5-min Rain = 0
KFLS 192025Z 19020G27KT 24/M01 A2985 RMK A01 T02441007  RH  019%=      5-min Rain = 0
KFLS 192030Z 19020G25KT 24/M01 A2984 RMK A01 T02421006  RH  020%=      5-min Rain = 0
KFLS 192035Z 18018G25KT 24/M01 A2984 RMK A01 T02431007  RH  019%=      5-min Rain = 0
KFLS 192040Z 19019G26KT 24/M01 A2984 RMK A01 T02431008  RH  019%=      5-min Rain = 0
KFLS 192045Z 19017G22KT 24/M01 A2984 RMK A01 T02441008  RH  019%=      5-min Rain = 0
KFLS 192050Z 19018G24KT 24/M01 A2984 RMK A01 T02421009  RH  019%=      5-min Rain = 0
KFLS 192055Z 19018G24KT 25/M01 A2984 RMK A01 T02451012  RH  018%=      5-min Rain = 0
KFLS 192100Z 18019G25KT 24/M02 A2983 RMK A01 T02421015  RH  018%=      5-min Rain = 0
KFLS 192105Z 18020G25KT 24/M01 A2983 RMK A01 T02421014  RH  018%=      5-min Rain = 0
KFLS 192110Z 19019G24KT 24/M01 A2983 RMK A01 T02421014  RH  018%=      5-min Rain = 0
KFLS 192115Z 19016KT 25/M01 A2983 RMK A01 T02451013  RH  018%=      5-min Rain = 0
KFLS 192120Z 19018KT 24/M02 A2983 RMK A01 T02421017  RH  018%=      5-min Rain = 0
KFLS 192125Z 19017G24KT 24/M02 A2983 RMK A01 T02391018  RH  018%=      5-min Rain = 0
KFLS 192130Z 18017G23KT 24/M02 A2983 RMK A01 T02391015  RH  019%=      5-min Rain = 0
KFLS 192135Z 19019KT 24/M02 A2983 RMK A01 T02401015  RH  019%=      5-min Rain = 0
KFLS 192140Z 19019G25KT 24/M02 A2982 RMK A01 T02381016  RH  019%=      5-min Rain = 0
KFLS 192145Z 19016G21KT 24/M01 A2982 RMK A01 T02371013  RH  019%=      5-min Rain = 0
KFLS 192150Z 19017G22KT 24/M01 A2982 RMK A01 T02381014  RH  019%=      5-min Rain = 0
KFLS 192155Z 19015KT 24/M02 A2982 RMK A01 T02391016  RH  018%=      5-min Rain = 0
KFLS 192200Z 19013G19KT 24/M01 A2982 RMK A01 T02411014  RH  019%=      5-min Rain = 0
KFLS 192205Z 19016KT 24/M01 A2982 RMK A01 T02371013  RH  019%=      5-min Rain = 0
KFLS 192210Z 20016G21KT 24/M01 A2982 RMK A01 T02371012  RH  019%=      5-min Rain = 0
KFLS 192215Z 19016KT 24/M01 A2982 RMK A01 T02361010  RH  020%=      5-min Rain = 0
KFLS 192220Z 19016KT 23/M01 A2982 RMK A01 T02331008  RH  020%=      5-min Rain = 0
KFLS 192225Z 18015G21KT 23/M01 A2982 RMK A01 T02321005  RH  021%=      5-min Rain = 0
KFLS 192230Z 18015KT 23/M00 A2982 RMK A01 T02331004  RH  021%=      5-min Rain = 0
KFLS 192235Z 18014G19KT 23/M00 A2982 RMK A01 T02311004  RH  021%=      5-min Rain = 0
KFLS 192240Z 18014KT 23/M00 A2982 RMK A01 T02271004  RH  022%=      5-min Rain = 0
KFLS 192245Z 18014KT 22/M00 A2982 RMK A01 T02241004  RH  022%=      5-min Rain = 0
KFLS 192250Z 18013KT 23/M00 A2982 RMK A01 T02251004  RH  022%=      5-min Rain = 0
KFLS 192255Z 18012KT 22/M00 A2981 RMK A01 T02221002  RH  023%=      5-min Rain = 0
KFLS 192300Z 17011KT 22/M00 A2981 RMK A01 T02181002  RH  023%=      5-min Rain = 0
KFLS 192305Z 17011KT 21/00 A2981 RMK A01 T02120001  RH  025%=      5-min Rain = 0
KFLS 192310Z 17012KT 21/00 A2981 RMK A01 T02120002  RH  025%=      5-min Rain = 0
KFLS 192315Z 17011KT 21/00 A2981 RMK A01 T02080002  RH  026%=      5-min Rain = 0
KFLS 192320Z 17011KT 20/00 A2981 RMK A01 T02030003  RH  026%=      5-min Rain = 0
KFLS 192325Z 17009KT 20/00 A2982 RMK A01 T02000003  RH  027%=      5-min Rain = 0
KFLS 192330Z 16009KT 19/00 A2982 RMK A01 T01930004  RH  028%=      5-min Rain = 0
KFLS 192335Z 17009KT 19/01 A2982 RMK A01 T01880005  RH  030%=      5-min Rain = 0
KFLS 192340Z 17010KT 19/01 A2982 RMK A01 T01860006  RH  030%=      5-min Rain = 0
KFLS 192345Z 17010KT 19/01 A2982 RMK A01 T01850006  RH  030%=      5-min Rain = 0
KFLS 192350Z 17009KT 18/01 A2982 RMK A01 T01800007  RH  031%=      5-min Rain = 0
KFLS 192355Z 17009KT 18/01 A2982 RMK A01 T01780008  RH  032%=      5-min Rain = 0
KFLS 200000Z 16008KT 18/01 A2982 RMK A01 T01750008  RH  033%=      5-min Rain = 0
KFLS 200005Z 16008KT 17/01 A2982 RMK A01 T01700007  RH  034%=      5-min Rain = 0
KFLS 200010Z 16008KT 17/01 A2982 RMK A01 T01670007  RH  034%=      5-min Rain = 0
KFLS 200015Z 16008KT 16/01 A2982 RMK A01 T01610005  RH  035%=      5-min Rain = 0
KFLS 200020Z 16007KT 15/01 A2982 RMK A01 T01540005  RH  036%=      5-min Rain = 0
KFLS 200025Z 16008KT 15/01 A2982 RMK A01 T01500005  RH  038%=      5-min Rain = 0
KFLS 200030Z 16009KT 15/01 A2982 RMK A01 T01510006  RH  038%=      5-min Rain = 0
KFLS 200035Z 16009KT 15/01 A2982 RMK A01 T01520007  RH  037%=      5-min Rain = 0
KFLS 200040Z 16009KT 15/01 A2982 RMK A01 T01520006  RH  038%=      5-min Rain = 0
KFLS 200045Z 16008KT 15/01 A2982 RMK A01 T01510007  RH  038%=      5-min Rain = 0
KFLS 200050Z 16009KT 15/01 A2982 RMK A01 T01480006  RH  038%=      5-min Rain = 0
KFLS 200055Z 16009KT 15/01 A2982 RMK A01 T01470007  RH  039%=      5-min Rain = 0
KFLS 200100Z 16009KT 15/01 A2982 RMK A01 T01500008  RH  039%=      5-min Rain = 0
KFLS 200105Z 16010KT 15/01 A2982 RMK A01 T01490009  RH  039%=      5-min Rain = 0
KFLS 200110Z 17010G15KT 15/01 A2982 RMK A01 T01510011  RH  039%=      5-min Rain = 0
KFLS 200115Z 17010KT 16/01 A2982 RMK A01 T01590012  RH  038%=      5-min Rain = 0
KFLS 200120Z 17011KT 16/01 A2982 RMK A01 T01610012  RH  037%=      5-min Rain = 0
KFLS 200125Z 17011KT 16/01 A2982 RMK A01 T01620012  RH  037%=      5-min Rain = 0
KFLS 200130Z 17011G16KT 16/01 A2982 RMK A01 T01610012  RH  037%=      5-min Rain = 0
KFLS 200135Z 17011KT 16/01 A2982 RMK A01 T01580012  RH  038%=      5-min Rain = 0
KFLS 200140Z 17011KT 16/01 A2982 RMK A01 T01570013  RH  038%=      5-min Rain = 0
KFLS 200145Z 16011KT 16/01 A2982 RMK A01 T01560013  RH  038%=      5-min Rain = 0
KFLS 200150Z 16011KT 15/01 A2982 RMK A01 T01520012  RH  039%=      5-min Rain = 0
KFLS 200155Z 16011KT 15/01 A2982 RMK A01 T01520013  RH  039%=      5-min Rain = 0
KFLS 200200Z 17011KT 15/01 A2982 RMK A01 T01490013  RH  040%=      5-min Rain = 0
KFLS 200205Z 17010KT 15/01 A2982 RMK A01 T01480014  RH  041%=      5-min Rain = 0
KFLS 200210Z 18010KT 15/02 A2982 RMK A01 T01480015  RH  041%=      5-min Rain = 0
KFLS 200215Z 17009KT 15/02 A2982 RMK A01 T01490015  RH  041%=      5-min Rain = 0
KFLS 200220Z 17009KT 15/02 A2983 RMK A01 T01460015  RH  041%=      5-min Rain = 0
KFLS 200225Z 17009KT 15/02 A2983 RMK A01 T01450015  RH  042%=      5-min Rain = 0
KFLS 200230Z 18009KT 15/02 A2982 RMK A01 T01460016  RH  042%=      5-min Rain = 0
KFLS 200235Z 17010KT 15/02 A2982 RMK A01 T01490016  RH  041%=      5-min Rain = 0
KFLS 200240Z 17010KT 15/02 A2982 RMK A01 T01500016  RH  041%=      5-min Rain = 0
KFLS 200245Z 17009KT 15/02 A2982 RMK A01 T01470016  RH  042%=      5-min Rain = 0
KFLS 200250Z 16009KT 14/02 A2982 RMK A01 T01410016  RH  043%=      5-min Rain = 0
KFLS 200255Z 17010KT 14/02 A2982 RMK A01 T01410018  RH  044%=      5-min Rain = 0
KFLS 200300Z 16009KT 14/02 A2982 RMK A01 T01380018  RH  045%=      5-min Rain = 0
KFLS 200305Z 17010KT 14/02 A2982 RMK A01 T01380018  RH  045%=      5-min Rain = 0
KFLS 200310Z 17010KT 14/02 A2982 RMK A01 T01370019  RH  045%=      5-min Rain = 0
KFLS 200315Z 17009KT 14/02 A2982 RMK A01 T01360019  RH  046%=      5-min Rain = 0
KFLS 200320Z 17009KT 13/02 A2982 RMK A01 T01340019  RH  046%=      5-min Rain = 0
KFLS 200325Z 17009KT 14/02 A2982 RMK A01 T01350020  RH  046%=      5-min Rain = 0
KFLS 200330Z 17008KT 13/02 A2982 RMK A01 T01310019  RH  047%=      5-min Rain = 0
KFLS 200335Z 17009KT 13/02 A2982 RMK A01 T01330020  RH  047%=      5-min Rain = 0
KFLS 200340Z 17010G15KT 14/02 A2982 RMK A01 T01360020  RH  046%=      5-min Rain = 0
KFLS 200345Z 17010KT 14/02 A2982 RMK A01 T01380021  RH  046%=      5-min Rain = 0
KFLS 200350Z 17011G16KT 14/02 A2982 RMK A01 T01400022  RH  045%=      5-min Rain = 0
KFLS 200355Z 18011KT 14/02 A2982 RMK A01 T01430022  RH  045%=      5-min Rain = 0
KFLS 200400Z 18011KT 14/02 A2982 RMK A01 T01420022  RH  045%=      5-min Rain = 0
KFLS 200405Z 18011KT 14/02 A2982 RMK A01 T01420023  RH  045%=      5-min Rain = 0
KFLS 200410Z 18011KT 14/02 A2982 RMK A01 T01410023  RH  045%=      5-min Rain = 0
KFLS 200415Z 18011KT 14/02 A2982 RMK A01 T01400024  RH  046%=      5-min Rain = 0
KFLS 200420Z 18012KT 14/03 A2982 RMK A01 T01390025  RH  047%=      5-min Rain = 0
KFLS 200425Z 18013KT 14/03 A2982 RMK A01 T01410026  RH  046%=      5-min Rain = 0
KFLS 200430Z 18012KT 14/03 A2982 RMK A01 T01410027  RH  047%=      5-min Rain = 0
KFLS 200435Z 18012KT 14/03 A2981 RMK A01 T01410028  RH  047%=      5-min Rain = 0
KFLS 200440Z 19011KT 14/03 A2981 RMK A01 T01410030  RH  048%=      5-min Rain = 0
KFLS 200445Z 19012KT 14/03 A2981 RMK A01 T01410031  RH  048%=      5-min Rain = 0
KFLS 200450Z 19013KT 15/03 A2982 RMK A01 T01450032  RH  047%=      5-min Rain = 0
KFLS 200455Z 19013G18KT 15/03 A2982 RMK A01 T01460032  RH  047%=      5-min Rain = 0
KFLS 200500Z 19011KT 15/03 A2982 RMK A01 T01460033  RH  047%=      5-min Rain = 0
KFLS 200505Z 19012KT 14/03 A2981 RMK A01 T01440033  RH  048%=      5-min Rain = 0
KFLS 200510Z 19013KT 14/03 A2982 RMK A01 T01430033  RH  048%=      5-min Rain = 0
KFLS 200515Z 19013KT 14/03 A2982 RMK A01 T01410033  RH  049%=      5-min Rain = 0
KFLS 200520Z 19014G19KT 14/03 A2982 RMK A01 T01400034  RH  049%=      5-min Rain = 0
KFLS 200525Z 19013KT 14/04 A2982 RMK A01 T01400035  RH  050%=      5-min Rain = 0
KFLS 200530Z 19013KT 14/04 A2982 RMK A01 T01390036  RH  050%=      5-min Rain = 0
KFLS 200535Z 19012G17KT 14/04 A2982 RMK A01 T01390038  RH  051%=      5-min Rain = 0
KFLS 200540Z 19013G18KT 14/04 A2982 RMK A01 T01380039  RH  052%=      5-min Rain = 0
KFLS 200545Z 19013G18KT 14/04 A2983 RMK A01 T01360040  RH  053%=      5-min Rain = 0
KFLS 200550Z 19013KT 13/04 A2982 RMK A01 T01340042  RH  054%=      5-min Rain = 0
KFLS 200555Z 19012KT 13/04 A2982 RMK A01 T01330043  RH  055%=      5-min Rain = 0

Page generated in 0.0089 seconds.